createdAt,value
2019-06-10T00:01:33.131Z,18.30
2019-06-10T00:04:17.803Z,18.20
2019-06-10T00:07:04.180Z,18.00
2019-06-10T00:09:51.143Z,17.90
2019-06-10T00:12:36.297Z,17.90
2019-06-10T00:15:21.512Z,17.90
2019-06-10T00:18:32.831Z,17.80
2019-06-10T00:20:55.273Z,17.90
2019-06-10T00:23:41.288Z,17.90
2019-06-10T00:26:26.649Z,17.90
2019-06-10T00:29:12.124Z,17.90
2019-06-10T00:31:58.184Z,17.90
2019-06-10T00:34:43.423Z,17.90
2019-06-10T00:37:31.369Z,17.80
2019-06-10T00:40:15.315Z,17.80
2019-06-10T00:43:02.167Z,17.80
2019-06-10T00:45:46.675Z,17.70
2019-06-10T00:48:32.327Z,17.70
2019-06-10T00:51:17.552Z,17.70
2019-06-10T00:54:04.970Z,17.70
2019-06-10T00:56:51.494Z,17.70
2019-06-10T00:59:36.228Z,17.80
2019-06-10T01:02:21.456Z,17.70
2019-06-10T01:05:07.267Z,17.70
2019-06-10T01:07:52.325Z,17.50
2019-06-10T01:10:37.219Z,17.50
2019-06-10T01:13:22.024Z,17.40
2019-06-10T01:16:07.478Z,17.40
2019-06-10T01:18:53.691Z,17.40
2019-06-10T01:21:38.752Z,17.30
2019-06-10T01:24:23.450Z,17.30
2019-06-10T01:27:10.743Z,17.30
2019-06-10T01:29:55.147Z,17.30
2019-06-10T01:32:41.681Z,17.20
2019-06-10T01:35:26.479Z,17.20
2019-06-10T01:38:15.723Z,17.20
2019-06-10T01:41:01.438Z,17.20
2019-06-10T01:43:46.641Z,17.20
2019-06-10T01:46:31.768Z,17.10
2019-06-10T01:49:18.179Z,17.10
2019-06-10T01:52:03.465Z,17.00
2019-06-10T01:54:48.283Z,17.10
2019-06-10T01:57:33.020Z,17.10
2019-06-10T02:00:25.664Z,17.10
2019-06-10T02:03:08.496Z,17.10
2019-06-10T02:05:54.576Z,17.00
2019-06-10T02:08:41.684Z,17.00
2019-06-10T02:11:26.115Z,16.90
2019-06-10T02:14:14.641Z,16.90
2019-06-10T02:16:58.014Z,16.90
2019-06-10T02:19:42.719Z,16.90
2019-06-10T02:22:27.530Z,16.90
2019-06-10T02:25:13.674Z,16.90
2019-06-10T02:28:01.039Z,16.90
2019-06-10T02:30:50.530Z,16.90
2019-06-10T02:33:35.946Z,16.90
2019-06-10T02:36:28.081Z,16.90
2019-06-10T02:39:07.027Z,16.90
2019-06-10T02:41:54.004Z,16.90
2019-06-10T02:44:38.806Z,16.90
2019-06-10T02:47:31.814Z,16.80
2019-06-10T02:50:14.276Z,16.80
2019-06-10T02:52:58.777Z,16.90
2019-06-10T02:55:46.532Z,16.70
2019-06-10T02:58:38.467Z,16.80
2019-06-10T03:01:19.936Z,16.80
2019-06-10T03:04:05.573Z,16.80
2019-06-10T03:06:54.061Z,16.90
2019-06-10T03:09:37.443Z,16.90
2019-06-10T03:12:24.546Z,16.90
2019-06-10T03:15:09.230Z,16.90
2019-06-10T03:17:54.170Z,17.00
2019-06-10T03:20:38.726Z,17.10
2019-06-10T03:23:26.371Z,17.10
2019-06-10T03:26:12.533Z,17.10
2019-06-10T03:28:57.589Z,17.10
2019-06-10T03:31:47.814Z,17.10
2019-06-10T03:34:36.313Z,17.00
2019-06-10T03:37:16.297Z,17.00
2019-06-10T03:40:05.237Z,17.00
2019-06-10T03:42:51.925Z,16.90
2019-06-10T03:45:36.785Z,16.80
2019-06-10T03:48:24.135Z,16.90
2019-06-10T03:51:08.420Z,16.80
2019-06-10T03:53:53.237Z,16.90
2019-06-10T03:56:38.520Z,16.90
2019-06-10T03:59:24.631Z,16.90
2019-06-10T04:02:12.660Z,17.00
2019-06-10T04:04:57.239Z,17.00
2019-06-10T04:07:42.762Z,17.00
2019-06-10T04:10:29.516Z,17.10
2019-06-10T04:13:14.452Z,17.10
2019-06-10T04:15:59.212Z,17.00
2019-06-10T04:18:44.355Z,16.90
2019-06-10T04:21:29.385Z,16.80
2019-06-10T04:24:14.297Z,16.70
2019-06-10T04:26:59.141Z,16.70
2019-06-10T04:29:44.392Z,16.70
2019-06-10T04:32:29.311Z,16.80
2019-06-10T04:35:14.250Z,16.80
2019-06-10T04:37:59.125Z,16.90
2019-06-10T04:40:44.871Z,16.90
2019-06-10T04:43:29.628Z,17.00
2019-06-10T04:46:14.487Z,17.10
2019-06-10T04:48:59.606Z,17.10
2019-06-10T04:51:44.230Z,17.10
2019-06-10T04:54:29.980Z,17.20
2019-06-10T04:57:15.054Z,17.20
2019-06-10T05:00:02.548Z,17.30
2019-06-10T05:02:47.109Z,17.30
2019-06-10T05:05:32.826Z,17.40
2019-06-10T05:08:19.005Z,17.40
2019-06-10T05:11:04.115Z,17.50
2019-06-10T05:13:50.273Z,17.50
2019-06-10T05:16:36.024Z,17.50
2019-06-10T05:19:24.090Z,17.50
2019-06-10T05:22:09.062Z,17.60
2019-06-10T05:24:53.745Z,17.70
2019-06-10T05:27:38.412Z,17.70
2019-06-10T05:30:26.289Z,17.70
2019-06-10T05:33:13.466Z,17.80
2019-06-10T05:35:58.581Z,17.90
2019-06-10T05:38:43.784Z,17.90
2019-06-10T05:41:30.373Z,18.00
2019-06-10T05:44:15.741Z,18.00
2019-06-10T05:47:03.411Z,18.10
2019-06-10T05:49:47.214Z,18.20
2019-06-10T05:52:33.803Z,18.30
2019-06-10T05:55:19.812Z,18.40
2019-06-10T05:58:05.051Z,18.50
2019-06-10T06:00:53.013Z,18.60
2019-06-10T06:03:37.719Z,18.80
2019-06-10T06:06:23.165Z,19.00
2019-06-10T06:09:08.094Z,19.10
2019-06-10T06:11:53.646Z,19.20
2019-06-10T06:14:38.223Z,19.30
2019-06-10T06:17:23.600Z,19.30
2019-06-10T06:20:09.625Z,19.40
2019-06-10T06:22:54.149Z,19.40
2019-06-10T06:25:43.277Z,19.50
2019-06-10T06:28:25.830Z,19.60
2019-06-10T06:31:12.767Z,19.60
2019-06-10T06:33:58.262Z,19.80
2019-06-10T06:36:42.984Z,19.90
2019-06-10T06:39:28.959Z,20.10
2019-06-10T06:42:14.154Z,20.30
2019-06-10T06:44:59.271Z,20.50
2019-06-10T06:47:44.354Z,20.60
2019-06-10T06:50:30.829Z,20.80
2019-06-10T06:53:28.113Z,20.90
2019-06-10T06:56:03.859Z,20.90
2019-06-10T06:58:49.068Z,21.00
2019-06-10T07:01:36.461Z,21.00
2019-06-10T07:04:23.535Z,21.10
2019-06-10T07:07:09.150Z,21.10
2019-06-10T07:09:56.266Z,21.20
2019-06-10T07:12:43.944Z,21.20
2019-06-10T07:15:39.697Z,21.20
2019-06-10T07:18:24.946Z,21.20
2019-06-10T07:21:09.844Z,21.30
2019-06-10T07:23:55.004Z,21.30
2019-06-10T07:26:46.253Z,21.30
2019-06-10T07:29:26.863Z,21.40
2019-06-10T07:32:12.427Z,21.50
2019-06-10T07:34:57.365Z,21.60
2019-06-10T07:37:44.518Z,21.60
2019-06-10T07:40:29.359Z,21.70
2019-06-10T07:43:16.136Z,21.80
2019-06-10T07:46:03.371Z,21.80
2019-06-10T07:48:51.952Z,21.90
2019-06-10T07:51:37.422Z,21.90
2019-06-10T07:54:23.086Z,22.00
2019-06-10T07:57:08.363Z,21.90
2019-06-10T07:59:53.888Z,21.80
2019-06-10T08:02:39.710Z,21.80
2019-06-10T08:05:25.657Z,22.00
2019-06-10T08:08:12.870Z,22.10
2019-06-10T08:10:57.234Z,22.10
2019-06-10T08:13:44.682Z,22.30
2019-06-10T08:16:29.194Z,22.40
2019-06-10T08:19:30.161Z,22.40
2019-06-10T08:22:02.857Z,22.40
2019-06-10T08:24:48.443Z,22.40
2019-06-10T08:27:33.819Z,22.50
2019-06-10T08:30:23.902Z,22.60
2019-06-10T08:33:06.017Z,22.70
2019-06-10T08:35:59.146Z,22.90
2019-06-10T08:38:38.284Z,23.00
2019-06-10T08:41:23.391Z,23.20
2019-06-10T08:44:08.847Z,23.40
2019-06-10T08:46:53.859Z,23.40
2019-06-10T08:49:39.234Z,23.40
2019-06-10T08:52:26.047Z,23.30
2019-06-10T08:55:13.580Z,23.10
2019-06-10T08:57:58.994Z,23.10
2019-06-10T09:00:46.251Z,23.20
2019-06-10T09:03:32.651Z,23.30
2019-06-10T09:06:18.330Z,23.30
2019-06-10T09:09:23.181Z,23.40
2019-06-10T09:12:08.804Z,23.40
2019-06-10T09:14:54.404Z,23.50
2019-06-10T09:17:42.094Z,23.60
2019-06-10T09:20:27.396Z,23.70
2019-06-10T09:23:19.237Z,23.90
2019-06-10T09:25:59.108Z,24.00
2019-06-10T09:28:47.167Z,24.20
2019-06-10T09:31:33.171Z,24.20
2019-06-10T09:34:18.063Z,24.40
2019-06-10T09:37:04.049Z,24.60
2019-06-10T09:39:55.939Z,24.60
2019-06-10T09:42:37.047Z,24.80
2019-06-10T09:45:22.463Z,24.80
2019-06-10T09:48:09.059Z,24.80
2019-06-10T09:50:58.600Z,24.50
2019-06-10T09:53:46.296Z,24.30
2019-06-10T09:56:29.323Z,24.30
2019-06-10T09:59:15.085Z,24.40
2019-06-10T10:02:03.669Z,24.40
2019-06-10T10:04:51.211Z,24.40
2019-06-10T10:07:35.059Z,24.30
2019-06-10T10:10:24.142Z,24.20
2019-06-10T10:13:09.758Z,24.20
2019-06-10T10:15:54.867Z,24.00
2019-06-10T10:18:42.514Z,24.10
2019-06-10T10:21:27.069Z,24.10
2019-06-10T10:24:14.925Z,24.20
2019-06-10T10:27:02.683Z,24.30
2019-06-10T10:29:50.317Z,24.40
2019-06-10T10:32:34.581Z,24.40
2019-06-10T10:35:19.568Z,24.70
2019-06-10T10:38:04.939Z,24.90
2019-06-10T10:40:51.884Z,25.10
2019-06-10T10:43:37.888Z,25.30
2019-06-10T10:46:23.629Z,25.40
2019-06-10T10:49:08.880Z,25.30
2019-06-10T10:51:54.433Z,25.10
2019-06-10T10:54:39.576Z,24.90
2019-06-10T10:57:24.453Z,24.70
2019-06-10T11:00:12.414Z,24.40
2019-06-10T11:02:58.566Z,24.20
2019-06-10T11:05:46.312Z,24.10
2019-06-10T11:08:33.179Z,23.90
2019-06-10T11:11:18.063Z,23.80
2019-06-10T11:14:03.689Z,23.60
2019-06-10T11:16:49.517Z,23.50
2019-06-10T11:19:36.093Z,23.40
2019-06-10T11:22:23.195Z,23.30
2019-06-10T11:25:07.997Z,23.20
2019-06-10T11:27:55.742Z,23.10
2019-06-10T11:30:42.468Z,23.00
2019-06-10T11:33:27.299Z,22.90
2019-06-10T11:36:13.558Z,22.80
2019-06-10T11:38:59.215Z,22.80
2019-06-10T11:41:44.568Z,22.80
2019-06-10T11:44:29.688Z,22.80
2019-06-10T11:47:14.788Z,22.80
2019-06-10T11:50:03.441Z,22.80
2019-06-10T11:52:49.562Z,22.80
2019-06-10T11:55:35.465Z,22.80
2019-06-10T11:58:22.472Z,22.90
2019-06-10T12:01:07.418Z,23.00
2019-06-10T12:03:55.853Z,23.10
2019-06-10T12:06:42.405Z,23.50
2019-06-10T12:09:27.116Z,23.80
2019-06-10T12:12:13.496Z,24.00
2019-06-10T12:15:01.083Z,24.20
2019-06-10T12:17:51.200Z,24.40
2019-06-10T12:20:34.020Z,24.40
2019-06-10T12:23:21.994Z,24.70
2019-06-10T12:26:06.830Z,25.00
2019-06-10T12:28:54.640Z,25.40
2019-06-10T12:31:39.111Z,25.80
2019-06-10T12:34:24.498Z,26.10
2019-06-10T12:37:13.016Z,26.40
2019-06-10T12:39:59.385Z,26.80
2019-06-10T12:42:43.735Z,27.00
2019-06-10T12:45:29.056Z,27.20
2019-06-10T12:48:14.230Z,27.50
2019-06-10T12:51:01.716Z,27.80
2019-06-10T12:53:46.620Z,27.70
2019-06-10T12:56:32.756Z,27.20
2019-06-10T12:59:25.143Z,26.80
2019-06-10T13:02:19.053Z,26.50
2019-06-10T13:04:57.580Z,26.20
2019-06-10T13:07:44.580Z,26.00
2019-06-10T13:10:38.255Z,25.90
2019-06-10T13:13:23.392Z,25.70
2019-06-10T13:16:10.417Z,25.50
2019-06-10T13:18:57.892Z,25.30
2019-06-10T13:21:43.329Z,25.20
2019-06-10T13:24:28.557Z,25.10
2019-06-10T13:27:13.579Z,25.00
2019-06-10T13:29:59.886Z,24.90
2019-06-10T13:32:44.647Z,24.80
2019-06-10T13:35:32.189Z,24.90
2019-06-10T13:38:17.270Z,25.00
2019-06-10T13:41:04.000Z,25.00
2019-06-10T13:43:48.944Z,24.90
2019-06-10T13:46:33.888Z,25.00
2019-06-10T13:49:18.759Z,25.20
2019-06-10T13:52:07.930Z,25.30
2019-06-10T13:54:52.224Z,25.60
2019-06-10T13:57:37.203Z,25.90
2019-06-10T14:00:31.512Z,26.00
2019-06-10T14:03:15.490Z,26.10
2019-06-10T14:05:58.658Z,26.50
2019-06-10T14:08:43.818Z,26.80
2019-06-10T14:11:30.157Z,26.80
2019-06-10T14:14:18.141Z,26.70
2019-06-10T14:17:03.871Z,26.50
2019-06-10T14:19:50.602Z,26.40
2019-06-10T14:22:35.687Z,26.20
2019-06-10T14:25:23.290Z,26.30
2019-06-10T14:28:09.396Z,26.40
2019-06-10T14:30:54.067Z,26.30
2019-06-10T14:33:39.023Z,26.20
2019-06-10T14:36:24.758Z,26.10
2019-06-10T14:39:10.192Z,26.00
2019-06-10T14:41:59.352Z,25.80
2019-06-10T14:44:43.353Z,25.70
2019-06-10T14:47:28.182Z,25.60
2019-06-10T14:50:17.147Z,25.40
2019-06-10T14:53:02.334Z,25.30
2019-06-10T14:55:47.618Z,25.20
2019-06-10T14:58:32.907Z,25.00
2019-06-10T15:01:24.042Z,24.90
2019-06-10T15:04:05.838Z,24.80
2019-06-10T15:06:53.473Z,24.60
2019-06-10T15:09:38.169Z,24.50
2019-06-10T15:12:23.266Z,24.40
2019-06-10T15:15:10.207Z,24.40
2019-06-10T15:17:55.933Z,24.20
2019-06-10T15:20:42.969Z,24.20
2019-06-10T15:23:28.564Z,24.00
2019-06-10T15:26:34.072Z,23.90
2019-06-10T15:29:20.807Z,23.60
2019-06-10T15:32:17.184Z,23.10
2019-06-10T15:34:54.238Z,22.60
2019-06-10T15:37:39.226Z,22.30
2019-06-10T15:40:24.810Z,22.10
2019-06-10T15:43:11.663Z,22.00
2019-06-10T15:45:56.995Z,21.80
2019-06-10T15:48:42.992Z,21.60
2019-06-10T15:51:28.450Z,21.50
2019-06-10T15:54:17.051Z,21.50
2019-06-10T15:57:03.002Z,21.50
2019-06-10T15:59:47.422Z,21.40
2019-06-10T16:02:33.520Z,21.40
2019-06-10T16:05:21.224Z,21.40
2019-06-10T16:08:07.779Z,21.50
2019-06-10T16:10:52.920Z,21.40
2019-06-10T16:13:38.665Z,21.50
2019-06-10T16:16:24.252Z,21.60
2019-06-10T16:19:09.150Z,21.70
2019-06-10T16:21:54.302Z,21.80
2019-06-10T16:24:39.100Z,22.00
2019-06-10T16:27:43.049Z,22.10
2019-06-10T16:30:13.124Z,22.20
2019-06-10T16:32:58.639Z,22.30
2019-06-10T16:35:44.858Z,22.30
2019-06-10T16:38:29.737Z,22.40
2019-06-10T16:41:15.366Z,22.30
2019-06-10T16:44:02.814Z,22.20
2019-06-10T16:46:46.812Z,22.10
2019-06-10T16:49:32.866Z,22.00
2019-06-10T16:52:19.436Z,21.90
2019-06-10T16:55:05.219Z,21.90
2019-06-10T16:57:58.841Z,22.00
2019-06-10T17:00:36.915Z,21.90
2019-06-10T17:03:25.454Z,21.90
2019-06-10T17:06:10.249Z,21.90
2019-06-10T17:08:55.175Z,21.80
2019-06-10T17:11:42.382Z,21.80
2019-06-10T17:14:27.786Z,21.70
2019-06-10T17:17:13.434Z,21.60
2019-06-10T17:19:58.305Z,21.50
2019-06-10T17:22:43.442Z,21.50
2019-06-10T17:25:29.689Z,21.50
2019-06-10T17:28:18.026Z,21.40
2019-06-10T17:31:03.731Z,21.40
2019-06-10T17:33:48.733Z,21.40
2019-06-10T17:36:35.360Z,21.40
2019-06-10T17:39:23.366Z,21.50
2019-06-10T17:42:07.760Z,21.50
2019-06-10T17:44:53.212Z,21.50
2019-06-10T17:47:38.668Z,21.40
2019-06-10T17:50:24.972Z,21.40
2019-06-10T17:53:12.692Z,21.40
2019-06-10T17:55:58.182Z,21.40
2019-06-10T17:58:54.341Z,21.50
2019-06-10T18:01:34.230Z,21.50
2019-06-10T18:04:22.191Z,21.60
2019-06-10T18:07:07.123Z,21.60
2019-06-10T18:09:52.981Z,21.60
2019-06-10T18:12:38.101Z,21.70
2019-06-10T18:15:24.055Z,21.70
2019-06-10T18:18:09.474Z,21.70
2019-06-10T18:20:54.922Z,21.70
2019-06-10T18:23:43.235Z,21.80
2019-06-10T18:26:28.875Z,21.70
2019-06-10T18:29:15.184Z,21.80
2019-06-10T18:32:00.427Z,21.70
2019-06-10T18:34:45.698Z,21.70
2019-06-10T18:37:33.326Z,21.80
2019-06-10T18:40:18.371Z,21.70
2019-06-10T18:43:04.427Z,21.70
2019-06-10T18:45:52.957Z,21.70
2019-06-10T18:48:38.157Z,21.70
2019-06-10T18:51:23.794Z,21.70
2019-06-10T18:54:08.653Z,21.60
2019-06-10T18:56:54.556Z,21.60
2019-06-10T18:59:39.641Z,21.60
2019-06-10T19:02:25.384Z,21.50
2019-06-10T19:05:13.221Z,21.60
2019-06-10T19:07:59.509Z,21.50
2019-06-10T19:10:46.519Z,21.50
2019-06-10T19:13:33.961Z,21.40
2019-06-10T19:16:18.906Z,21.40
2019-06-10T19:19:04.448Z,21.40
2019-06-10T19:22:02.730Z,21.30
2019-06-10T19:24:38.027Z,21.30
2019-06-10T19:27:24.022Z,21.20
2019-06-10T19:30:09.911Z,21.20
2019-06-10T19:32:56.238Z,21.20
2019-06-10T19:35:43.718Z,21.10
2019-06-10T19:38:28.673Z,21.00
2019-06-10T19:41:14.471Z,21.00
2019-06-10T19:44:02.341Z,20.90
2019-06-10T19:46:47.062Z,20.80
2019-06-10T19:49:33.792Z,20.70
2019-06-10T19:52:19.109Z,20.70
2019-06-10T19:55:07.207Z,20.70
2019-06-10T19:57:52.242Z,20.60
2019-06-10T20:00:39.393Z,20.60
2019-06-10T20:03:24.453Z,20.50
2019-06-10T20:06:12.858Z,20.40
2019-06-10T20:08:57.233Z,20.30
2019-06-10T20:11:45.596Z,20.20
2019-06-10T20:14:32.131Z,20.10
2019-06-10T20:17:17.348Z,20.00
2019-06-10T20:20:05.530Z,19.90
2019-06-10T20:22:52.820Z,19.70
2019-06-10T20:25:38.480Z,19.60
2019-06-10T20:28:23.458Z,19.50
2019-06-10T20:31:09.134Z,19.50
2019-06-10T20:33:54.302Z,19.40
2019-06-10T20:36:42.442Z,19.40
2019-06-10T20:39:29.488Z,19.30
2019-06-10T20:42:14.457Z,19.20
2019-06-10T20:44:59.421Z,19.20
2019-06-10T20:47:47.825Z,19.10
2019-06-10T20:50:33.367Z,19.00
2019-06-10T20:53:18.818Z,18.90
2019-06-10T20:56:04.346Z,18.80
2019-06-10T20:58:49.760Z,18.80
2019-06-10T21:01:35.962Z,18.70
2019-06-10T21:04:21.479Z,18.50
2019-06-10T21:07:07.437Z,18.50
2019-06-10T21:09:53.453Z,18.50
2019-06-10T21:12:39.708Z,18.50
2019-06-10T21:15:25.273Z,18.40
2019-06-10T21:18:13.032Z,18.30
2019-06-10T21:20:57.603Z,18.10
2019-06-10T21:23:44.633Z,18.20
2019-06-10T21:26:32.336Z,18.20
2019-06-10T21:29:17.058Z,18.10
2019-06-10T21:32:03.575Z,18.00
2019-06-10T21:34:49.286Z,18.00
2019-06-10T21:37:34.722Z,18.00
2019-06-10T21:40:20.590Z,18.00
2019-06-10T21:43:05.743Z,18.00
2019-06-10T21:45:56.185Z,17.90
2019-06-10T21:48:37.656Z,17.90
2019-06-10T21:51:23.024Z,17.80
2019-06-10T21:54:08.408Z,17.70
2019-06-10T21:56:55.382Z,17.70
2019-06-10T21:59:42.920Z,17.60
2019-06-10T22:02:28.046Z,17.50
2019-06-10T22:05:13.596Z,17.30
2019-06-10T22:07:58.661Z,17.30
2019-06-10T22:11:03.409Z,17.20
2019-06-10T22:13:50.156Z,17.20
2019-06-10T22:16:36.496Z,17.30
2019-06-10T22:19:23.128Z,17.20
2019-06-10T22:22:08.637Z,17.20
2019-06-10T22:24:55.185Z,17.20
2019-06-10T22:27:42.045Z,17.10
2019-06-10T22:30:27.714Z,17.00
2019-06-10T22:33:12.577Z,17.10
2019-06-10T22:35:57.883Z,17.10
2019-06-10T22:38:43.261Z,17.20
2019-06-10T22:41:28.441Z,17.20
2019-06-10T22:44:13.575Z,17.10
2019-06-10T22:46:58.197Z,17.20
2019-06-10T22:49:43.338Z,17.20
2019-06-10T22:52:28.754Z,17.30
2019-06-10T22:55:13.897Z,17.30
2019-06-10T22:58:02.394Z,17.30
2019-06-10T23:00:46.401Z,17.30
2019-06-10T23:03:31.891Z,17.40
2019-06-10T23:06:18.351Z,17.50
2019-06-10T23:09:04.592Z,17.60
2019-06-10T23:11:50.518Z,17.60
2019-06-10T23:14:36.287Z,17.60
2019-06-10T23:17:21.983Z,17.60
2019-06-10T23:20:07.780Z,17.60
2019-06-10T23:22:56.100Z,17.70
2019-06-10T23:25:39.897Z,17.80
2019-06-10T23:28:24.836Z,17.80
2019-06-10T23:31:12.293Z,17.80
2019-06-10T23:33:56.739Z,17.80
2019-06-10T23:36:43.191Z,17.80
2019-06-10T23:39:28.554Z,17.80
2019-06-10T23:42:13.200Z,17.80
2019-06-10T23:44:59.149Z,17.80
2019-06-10T23:47:44.476Z,17.80
2019-06-10T23:50:29.107Z,17.80
2019-06-10T23:53:14.892Z,17.80
2019-06-10T23:56:00.826Z,17.80
2019-06-10T23:58:46.916Z,17.70
